Time;durP1;ratioP1;P1;durP2;ratioP2;P2;SDS_P1;SDS_P2;PMS_P1;PMS_P2;Temp;Humidity;BMP_temperature;BMP_pressure;BME280_temperature;BME280_humidity;BME280_pressure;Samples;Min_cycle;Max_cycle;Signal;HPM_P1;HPM_P2
2022/08/02 00:00:42;;;;;;;6.05;4.10;;;;;;;;;;5017904;28;20073;-78
2022/08/02 00:03:08;;;;;;;8.27;4.20;;;;;;;;;;5022286;28;20069;-80
2022/08/02 00:05:34;;;;;;;5.20;4.15;;;;;;;;;;5003675;28;20089;-79
2022/08/02 00:08:01;;;;;;;7.60;3.90;;;;;;;;;;5022100;28;20054;-79
2022/08/02 00:10:27;;;;;;;5.40;4.18;;;;;;;;;;5022330;28;20070;-79
2022/08/02 00:12:55;;;;;;;4.65;3.70;;;;;;;;;;5022053;28;20053;-80
2022/08/02 00:15:22;;;;;;;6.93;3.75;;;;;;;;;;5023325;28;20042;-79
2022/08/02 00:17:48;;;;;;;5.30;3.88;;;;;;;;;;5022703;28;20054;-79
2022/08/02 00:20:15;;;;;;;4.68;3.63;;;;;;;;;;5022276;28;20046;-79
2022/08/02 00:22:41;;;;;;;9.00;3.75;;;;;;;;;;5021606;28;20050;-79
2022/08/02 00:25:08;;;;;;;4.78;3.20;;;;;;;;;;5023901;28;20060;-79
2022/08/02 00:27:34;;;;;;;4.68;2.78;;;;;;;;;;5023803;28;20065;-79
2022/08/02 00:30:01;;;;;;;5.95;3.50;;;;;;;;;;5023681;28;20057;-78
2022/08/02 00:32:27;;;;;;;7.35;3.67;;;;;;;;;;5022820;28;20042;-78
2022/08/02 00:34:53;;;;;;;3.97;3.17;;;;;;;;;;5024343;28;20072;-80
2022/08/02 00:37:20;;;;;;;6.38;3.33;;;;;;;;;;5025621;28;20049;-79
2022/08/02 00:39:46;;;;;;;6.03;3.00;;;;;;;;;;5028512;28;20046;-79
2022/08/02 00:42:14;;;;;;;4.90;3.20;;;;;;;;;;5028132;28;20057;-79
2022/08/02 00:44:40;;;;;;;6.53;3.03;;;;;;;;;;5028907;28;20058;-80
2022/08/02 00:47:07;;;;;;;5.38;3.35;;;;;;;;;;5028950;28;20088;-79
2022/08/02 00:49:33;;;;;;;5.72;3.08;;;;;;;;;;5027971;28;20042;-80
2022/08/02 00:52:00;;;;;;;5.53;3.40;;;;;;;;;;5026691;28;20065;-78
2022/08/02 00:54:26;;;;;;;4.78;3.00;;;;;;;;;;5028733;28;20077;-80
2022/08/02 00:56:53;;;;;;;4.85;3.28;;;;;;;;;;5028696;28;20053;-80
2022/08/02 00:59:22;;;;;;;4.72;3.10;;;;;;;;;;5028579;28;20046;-79
2022/08/02 01:01:50;;;;;;;5.15;3.00;;;;;;;;;;5027182;28;20084;-80
2022/08/02 01:04:23;;;;;;;6.53;3.20;;;;;;;;;;5023865;28;20054;-80
2022/08/02 01:06:56;;;;;;;4.32;3.40;;;;;;;;;;5026838;28;20077;-79
2022/08/02 01:09:22;;;;;;;6.43;3.45;;;;;;;;;;5028276;28;20061;-79
2022/08/02 01:11:48;;;;;;;4.25;3.42;;;;;;;;;;5026747;28;20045;-79
2022/08/02 01:14:15;;;;;;;8.27;3.80;;;;;;;;;;5026049;28;20049;-79
2022/08/02 01:16:45;;;;;;;4.45;3.40;;;;;;;;;;5026904;28;20049;-79
2022/08/02 01:19:22;;;;;;;6.35;3.83;;;;;;;;;;5024703;28;20054;-79
2022/08/02 01:21:54;;;;;;;8.27;3.92;;;;;;;;;;5034803;28;20034;-80
2022/08/02 01:24:34;;;;;;;8.93;3.55;;;;;;;;;;5039061;28;20068;-79
2022/08/02 01:27:19;;;;;;;6.78;3.53;;;;;;;;;;5036325;28;20050;-79
2022/08/02 01:29:50;;;;;;;5.57;3.88;;;;;;;;;;5028032;28;20114;-79
2022/08/02 01:32:18;;;;;;;9.30;3.45;;;;;;;;;;5026021;28;20184;-80
2022/08/02 01:34:59;;;;;;;6.88;3.83;;;;;;;;;;5027146;28;20057;-79
2022/08/02 01:37:35;;;;;;;5.80;4.20;;;;;;;;;;5026929;28;20056;-79
2022/08/02 01:40:12;;;;;;;6.60;4.70;;;;;;;;;;5028576;28;20073;-78
2022/08/02 01:42:42;;;;;;;8.30;3.65;;;;;;;;;;5027102;28;20053;-80
2022/08/02 01:45:10;;;;;;;7.57;3.80;;;;;;;;;;5029238;28;20053;-79
2022/08/02 01:47:38;;;;;;;5.53;4.00;;;;;;;;;;5027701;28;20072;-80
2022/08/02 01:50:06;;;;;;;7.65;3.63;;;;;;;;;;5025462;28;20486;-79
2022/08/02 01:52:34;;;;;;;3.85;3.35;;;;;;;;;;5024909;28;20049;-80
2022/08/02 01:55:00;;;;;;;4.32;3.30;;;;;;;;;;5018503;28;20066;-78
2022/08/02 01:57:30;;;;;;;7.05;3.70;;;;;;;;;;5019840;28;20048;-78
2022/08/02 01:59:59;;;;;;;8.68;3.65;;;;;;;;;;5020328;28;20081;-81
2022/08/02 02:02:27;;;;;;;8.73;4.55;;;;;;;;;;5018026;28;20073;-77
2022/08/02 02:04:57;;;;;;;8.80;4.38;;;;;;;;;;5019982;28;20034;-81
2022/08/02 02:07:24;;;;;;;5.18;3.85;;;;;;;;;;5027671;28;20105;-81
2022/08/02 02:09:51;;;;;;;5.70;4.55;;;;;;;;;;5032840;28;20045;-81
2022/08/02 02:12:18;;;;;;;7.18;4.22;;;;;;;;;;5032129;28;20030;-79
2022/08/02 02:14:46;;;;;;;5.07;3.90;;;;;;;;;;5030458;28;20054;-81
2022/08/02 02:17:18;;;;;;;6.55;4.85;;;;;;;;;;5024773;28;20046;-80
2022/08/02 02:20:05;;;;;;;5.55;4.57;;;;;;;;;;5018700;28;20487;-80
2022/08/02 02:22:31;;;;;;;5.32;4.20;;;;;;;;;;5017590;28;20049;-79
2022/08/02 02:24:58;;;;;;;5.22;4.00;;;;;;;;;;5024575;28;20057;-79
2022/08/02 02:27:26;;;;;;;7.55;4.20;;;;;;;;;;5024961;28;20046;-79
2022/08/02 02:29:52;;;;;;;7.72;3.92;;;;;;;;;;5024444;28;20057;-79
2022/08/02 02:32:19;;;;;;;4.53;3.85;;;;;;;;;;5023483;28;20053;-79
2022/08/02 02:34:47;;;;;;;5.75;3.40;;;;;;;;;;5023272;28;20089;-80
2022/08/02 02:37:20;;;;;;;6.97;3.90;;;;;;;;;;5024387;28;20049;-80
2022/08/02 02:39:48;;;;;;;6.60;3.58;;;;;;;;;;5025434;28;20121;-80
2022/08/02 02:42:16;;;;;;;7.82;3.45;;;;;;;;;;5024874;28;20049;-80
2022/08/02 02:44:45;;;;;;;5.30;3.65;;;;;;;;;;5025303;28;20255;-80
2022/08/02 02:47:13;;;;;;;6.65;3.72;;;;;;;;;;5025993;28;20061;-80
2022/08/02 02:49:40;;;;;;;6.60;4.13;;;;;;;;;;5027698;28;20046;-80
2022/08/02 02:52:07;;;;;;;4.95;3.95;;;;;;;;;;5026613;28;20046;-80
2022/08/02 02:54:35;;;;;;;7.90;4.30;;;;;;;;;;5028088;28;20038;-80
2022/08/02 02:57:02;;;;;;;10.32;4.50;;;;;;;;;;5027402;28;20045;-79
2022/08/02 02:59:29;;;;;;;6.50;4.95;;;;;;;;;;5025893;28;20078;-80
2022/08/02 03:01:56;;;;;;;11.88;5.00;;;;;;;;;;5026101;28;20053;-79
2022/08/02 03:04:25;;;;;;;6.38;4.47;;;;;;;;;;5026199;28;20133;-81
2022/08/02 03:06:52;;;;;;;8.82;4.97;;;;;;;;;;5027247;28;20240;-79
2022/08/02 03:09:18;;;;;;;7.22;5.03;;;;;;;;;;5027415;28;20049;-80
2022/08/02 03:11:45;;;;;;;10.27;5.97;;;;;;;;;;5026586;28;20073;-79
2022/08/02 03:14:12;;;;;;;10.57;5.47;;;;;;;;;;5026892;28;20053;-80
2022/08/02 03:16:45;;;;;;;10.70;6.20;;;;;;;;;;5026859;28;20050;-79
2022/08/02 03:19:12;;;;;;;8.80;5.70;;;;;;;;;;5024396;28;20060;-80
2022/08/02 03:21:40;;;;;;;7.47;5.20;;;;;;;;;;5025581;28;20073;-79
2022/08/02 03:24:06;;;;;;;7.13;5.30;;;;;;;;;;5023305;28;20076;-80
2022/08/02 03:26:33;;;;;;;8.55;5.13;;;;;;;;;;5024972;28;20045;-79
2022/08/02 03:29:00;;;;;;;9.82;4.97;;;;;;;;;;5024668;28;20050;-80
2022/08/02 03:31:36;;;;;;;7.97;4.68;;;;;;;;;;5024478;28;20068;-80
2022/08/02 03:34:02;;;;;;;8.27;4.85;;;;;;;;;;5024389;28;20110;-81
2022/08/02 03:36:30;;;;;;;5.03;4.45;;;;;;;;;;5024389;28;20114;-79
2022/08/02 03:38:57;;;;;;;7.80;4.88;;;;;;;;;;5024940;28;20088;-80
2022/08/02 03:41:23;;;;;;;9.90;5.28;;;;;;;;;;5024530;28;20076;-79
2022/08/02 03:43:50;;;;;;;10.23;4.90;;;;;;;;;;5025907;28;20041;-80
2022/08/02 03:46:18;;;;;;;6.30;4.90;;;;;;;;;;5026146;28;20129;-80
2022/08/02 03:48:46;;;;;;;6.13;4.25;;;;;;;;;;5017836;28;20076;-80
2022/08/02 03:51:13;;;;;;;8.20;4.25;;;;;;;;;;5024403;28;20053;-80
2022/08/02 03:53:39;;;;;;;9.88;4.75;;;;;;;;;;5025319;28;20077;-79
2022/08/02 03:56:06;;;;;;;7.75;5.18;;;;;;;;;;5024448;28;20153;-80
2022/08/02 03:58:33;;;;;;;10.50;4.97;;;;;;;;;;5025676;28;20084;-80
2022/08/02 04:00:59;;;;;;;9.75;4.60;;;;;;;;;;5023928;28;20069;-80
2022/08/02 04:03:26;;;;;;;6.63;4.75;;;;;;;;;;5024428;28;20042;-80
2022/08/02 04:05:52;;;;;;;7.10;5.40;;;;;;;;;;5020129;28;20085;-80
2022/08/02 04:08:30;;;;;;;7.45;5.10;;;;;;;;;;5019053;28;20046;-80
2022/08/02 04:13:47;;;;;;;8.27;4.70;;;;;;;;;;5027709;28;20419;-80
2022/08/02 04:16:19;;;;;;;6.80;4.63;;;;;;;;;;5024621;28;20185;-81
2022/08/02 04:18:50;;;;;;;11.10;4.72;;;;;;;;;;5025111;28;20128;-80
2022/08/02 04:21:18;;;;;;;7.65;5.03;;;;;;;;;;5023773;28;20065;-80
2022/08/02 04:23:45;;;;;;;10.55;5.55;;;;;;;;;;5023311;28;20125;-79
2022/08/02 04:26:11;;;;;;;13.60;5.53;;;;;;;;;;5023866;28;20074;-80
2022/08/02 04:28:39;;;;;;;8.98;5.20;;;;;;;;;;5022931;28;20077;-80
2022/08/02 04:31:06;;;;;;;10.45;5.60;;;;;;;;;;5021771;28;20077;-80
2022/08/02 04:33:33;;;;;;;9.75;5.85;;;;;;;;;;5022949;28;20049;-79
2022/08/02 04:36:00;;;;;;;6.65;4.78;;;;;;;;;;5023956;28;20049;-79
2022/08/02 04:38:26;;;;;;;8.73;5.15;;;;;;;;;;5036757;28;20026;-80
2022/08/02 04:40:54;;;;;;;6.28;5.00;;;;;;;;;;5037526;28;20037;-79
2022/08/02 04:43:21;;;;;;;6.82;4.63;;;;;;;;;;5035064;28;20046;-79
2022/08/02 04:45:48;;;;;;;7.85;5.00;;;;;;;;;;5028451;28;20068;-79
2022/08/02 04:48:15;;;;;;;8.45;4.75;;;;;;;;;;5027368;28;20050;-79
2022/08/02 04:50:41;;;;;;;6.68;5.20;;;;;;;;;;5024126;28;20049;-79
2022/08/02 04:53:08;;;;;;;7.03;4.32;;;;;;;;;;5027982;28;20147;-79
2022/08/02 04:55:34;;;;;;;10.48;4.35;;;;;;;;;;5028015;28;20065;-79
2022/08/02 04:58:01;;;;;;;7.30;4.85;;;;;;;;;;5026004;28;20080;-79
2022/08/02 05:00:35;;;;;;;17.00;5.88;;;;;;;;;;5025658;28;20493;-79
2022/08/02 05:03:01;;;;;;;11.35;5.90;;;;;;;;;;5027339;28;20072;-80
2022/08/02 05:05:28;;;;;;;12.57;6.03;;;;;;;;;;5026651;28;20065;-79
2022/08/02 05:07:54;;;;;;;9.55;5.28;;;;;;;;;;5024479;28;20124;-81
2022/08/02 05:10:21;;;;;;;10.75;6.35;;;;;;;;;;5019995;28;20129;-78
2022/08/02 05:12:48;;;;;;;11.93;7.22;;;;;;;;;;5016665;28;20085;-79
2022/08/02 05:15:17;;;;;;;12.75;7.43;;;;;;;;;;5019929;28;20073;-80
2022/08/02 05:17:44;;;;;;;12.63;6.45;;;;;;;;;;5024458;28;20557;-80
2022/08/02 05:20:14;;;;;;;12.23;6.70;;;;;;;;;;5024920;28;20637;-80
2022/08/02 05:22:41;;;;;;;13.93;6.88;;;;;;;;;;5021738;28;20049;-80
2022/08/02 05:25:07;;;;;;;11.75;5.80;;;;;;;;;;5026966;28;20312;-80
2022/08/02 05:27:34;;;;;;;8.07;5.40;;;;;;;;;;5027480;28;20054;-80
2022/08/02 05:30:01;;;;;;;10.45;5.43;;;;;;;;;;5026596;28;20062;-80
2022/08/02 05:32:27;;;;;;;7.32;5.63;;;;;;;;;;5022833;28;20295;-79
2022/08/02 05:34:54;;;;;;;9.80;5.72;;;;;;;;;;5025072;28;20049;-80
2022/08/02 05:37:20;;;;;;;7.78;5.72;;;;;;;;;;5021359;28;20519;-80
2022/08/02 05:39:47;;;;;;;10.40;5.50;;;;;;;;;;5015503;28;20591;-78
2022/08/02 05:42:21;;;;;;;6.85;5.53;;;;;;;;;;5011803;28;20060;-76
2022/08/02 05:44:48;;;;;;;12.32;6.05;;;;;;;;;;5012598;28;20141;-78
2022/08/02 05:47:14;;;;;;;9.70;5.68;;;;;;;;;;5012499;28;20069;-78
2022/08/02 05:49:44;;;;;;;8.85;5.97;;;;;;;;;;5012178;28;20173;-78
2022/08/02 05:52:13;;;;;;;10.82;5.60;;;;;;;;;;5011740;28;20085;-78
2022/08/02 05:54:53;;;;;;;11.48;5.60;;;;;;;;;;5013444;28;20045;-77
2022/08/02 05:57:20;;;;;;;8.27;5.30;;;;;;;;;;5013892;28;20053;-79
2022/08/02 05:59:56;;;;;;;7.60;4.97;;;;;;;;;;5013276;28;20128;-78
2022/08/02 06:02:33;;;;;;;12.48;5.05;;;;;;;;;;5012639;28;20137;-78
2022/08/02 06:05:04;;;;;;;7.88;5.25;;;;;;;;;;5011144;28;20085;-78
2022/08/02 06:07:33;;;;;;;9.38;5.72;;;;;;;;;;5012533;28;20081;-78
2022/08/02 06:10:00;;;;;;;9.13;5.07;;;;;;;;;;5013029;28;20090;-78
2022/08/02 06:12:28;;;;;;;8.82;4.85;;;;;;;;;;5012863;28;20073;-78
2022/08/02 06:14:55;;;;;;;8.57;4.70;;;;;;;;;;5014170;28;20491;-78
2022/08/02 06:17:22;;;;;;;7.88;5.00;;;;;;;;;;5013689;28;20046;-78
2022/08/02 06:19:49;;;;;;;10.25;5.45;;;;;;;;;;5012895;28;20084;-78
2022/08/02 06:22:18;;;;;;;11.50;5.20;;;;;;;;;;5012412;28;20081;-77
2022/08/02 06:25:01;;;;;;;9.75;4.93;;;;;;;;;;5012675;28;20060;-78
2022/08/02 06:27:28;;;;;;;8.50;4.57;;;;;;;;;;5013353;28;20459;-78
2022/08/02 06:29:55;;;;;;;6.82;4.72;;;;;;;;;;5013769;28;20076;-78
2022/08/02 06:32:22;;;;;;;10.48;5.35;;;;;;;;;;5011191;28;20042;-78
2022/08/02 06:34:48;;;;;;;8.93;4.70;;;;;;;;;;5009635;28;20132;-77
2022/08/02 06:37:20;;;;;;;8.70;4.82;;;;;;;;;;5009491;28;20049;-78
2022/08/02 06:39:48;;;;;;;9.98;4.82;;;;;;;;;;5010963;28;20132;-77
2022/08/02 06:42:19;;;;;;;10.23;5.32;;;;;;;;;;5009409;28;20050;-78
2022/08/02 06:44:52;;;;;;;12.10;4.80;;;;;;;;;;5010809;28;20050;-78
2022/08/02 06:47:23;;;;;;;9.68;5.28;;;;;;;;;;5008956;28;20042;-77
2022/08/02 06:49:49;;;;;;;10.38;5.28;;;;;;;;;;5009291;28;20137;-77
2022/08/02 06:52:29;;;;;;;8.82;4.50;;;;;;;;;;5009379;28;20069;-78
2022/08/02 06:54:58;;;;;;;12.77;5.05;;;;;;;;;;5010419;28;20521;-77
2022/08/02 06:57:24;;;;;;;8.38;4.63;;;;;;;;;;5010581;28;20085;-77
2022/08/02 06:59:51;;;;;;;14.38;4.63;;;;;;;;;;5010451;28;20512;-78
2022/08/02 07:02:17;;;;;;;9.57;5.00;;;;;;;;;;5009322;28;20618;-77
2022/08/02 07:04:43;;;;;;;9.05;4.50;;;;;;;;;;5009044;28;20104;-78
2022/08/02 07:07:10;;;;;;;10.93;4.78;;;;;;;;;;5009091;28;20104;-78
2022/08/02 07:09:36;;;;;;;9.00;4.78;;;;;;;;;;5010495;28;20133;-78
2022/08/02 07:12:03;;;;;;;8.10;4.53;;;;;;;;;;5009748;28;20115;-78
2022/08/02 07:14:29;;;;;;;10.10;4.80;;;;;;;;;;5010162;28;20080;-78
2022/08/02 07:16:57;;;;;;;10.70;5.25;;;;;;;;;;5012255;28;20046;-78
2022/08/02 07:19:25;;;;;;;10.35;4.32;;;;;;;;;;5012018;28;20045;-78
2022/08/02 07:22:03;;;;;;;8.65;5.07;;;;;;;;;;5010400;28;20100;-78
2022/08/02 07:24:30;;;;;;;8.48;4.20;;;;;;;;;;5010458;28;20536;-78
2022/08/02 07:26:57;;;;;;;7.18;4.30;;;;;;;;;;5011698;28;20192;-77
2022/08/02 07:29:39;;;;;;;5.57;3.88;;;;;;;;;;5010724;28;20553;-78
2022/08/02 07:32:32;;;;;;;9.68;4.38;;;;;;;;;;5009585;28;20161;-78
2022/08/02 07:34:59;;;;;;;6.20;3.33;;;;;;;;;;5010764;28;20133;-77
2022/08/02 07:37:33;;;;;;;7.63;4.05;;;;;;;;;;5014948;28;20120;-77
2022/08/02 07:40:19;;;;;;;6.63;3.45;;;;;;;;;;5032503;28;20053;-78
2022/08/02 07:42:51;;;;;;;7.63;3.58;;;;;;;;;;5031516;28;20049;-77
2022/08/02 07:45:22;;;;;;;6.63;3.13;;;;;;;;;;5035856;28;20045;-77
2022/08/02 07:47:48;;;;;;;5.00;3.40;;;;;;;;;;5024349;28;20115;-78
2022/08/02 07:50:16;;;;;;;9.18;3.28;;;;;;;;;;5038500;28;20504;-78
2022/08/02 07:52:43;;;;;;;8.90;2.40;;;;;;;;;;5031335;28;20099;-77
2022/08/02 07:55:10;;;;;;;5.55;2.60;;;;;;;;;;5015531;28;20108;-78
2022/08/02 07:57:37;;;;;;;5.93;3.28;;;;;;;;;;5017746;28;20517;-78
2022/08/02 08:00:11;;;;;;;4.60;2.70;;;;;;;;;;5019063;28;20046;-78
2022/08/02 08:02:38;;;;;;;4.40;2.70;;;;;;;;;;5026686;28;20528;-78
2022/08/02 08:05:05;;;;;;;5.15;2.30;;;;;;;;;;5042812;28;20072;-77
2022/08/02 08:07:32;;;;;;;3.25;2.13;;;;;;;;;;5033937;28;20092;-78
2022/08/02 08:09:59;;;;;;;4.30;1.98;;;;;;;;;;5016180;28;20128;-78
2022/08/02 08:12:26;;;;;;;6.00;2.47;;;;;;;;;;5015059;28;20132;-77
2022/08/02 08:14:52;;;;;;;9.25;2.08;;;;;;;;;;5015980;28;20073;-78
2022/08/02 08:17:19;;;;;;;6.55;1.83;;;;;;;;;;5014094;28;20144;-78
2022/08/02 08:19:46;;;;;;;2.10;1.50;;;;;;;;;;5014289;28;20140;-78
2022/08/02 08:22:17;;;;;;;4.40;1.52;;;;;;;;;;5014192;28;20604;-77
2022/08/02 08:24:44;;;;;;;4.53;1.70;;;;;;;;;;5016752;28;20078;-78
2022/08/02 08:27:13;;;;;;;3.33;1.70;;;;;;;;;;5016747;28;20081;-78
2022/08/02 08:29:41;;;;;;;5.95;2.17;;;;;;;;;;5016966;28;20074;-78
2022/08/02 08:32:07;;;;;;;4.63;2.90;;;;;;;;;;5013439;28;20131;-77
2022/08/02 08:34:41;;;;;;;4.20;2.10;;;;;;;;;;5013516;28;20054;-77
2022/08/02 08:37:08;;;;;;;4.25;2.30;;;;;;;;;;5014461;28;20688;-78
2022/08/02 08:39:42;;;;;;;2.97;2.13;;;;;;;;;;5017406;28;20474;-77
2022/08/02 08:42:22;;;;;;;7.00;2.42;;;;;;;;;;5014963;28;20076;-78
2022/08/02 08:44:50;;;;;;;3.38;1.88;;;;;;;;;;5016413;28;20069;-78
2022/08/02 08:47:16;;;;;;;10.18;2.20;;;;;;;;;;5015526;28;20092;-78
2022/08/02 08:49:47;;;;;;;4.93;2.35;;;;;;;;;;5015552;28;20046;-77
2022/08/02 08:52:18;;;;;;;4.40;2.28;;;;;;;;;;5014828;28;20060;-78
2022/08/02 08:54:47;;;;;;;2.95;2.03;;;;;;;;;;5007785;28;20041;-78
2022/08/02 08:57:15;;;;;;;7.80;2.30;;;;;;;;;;5011559;28;20046;-78
2022/08/02 08:59:41;;;;;;;4.32;2.40;;;;;;;;;;5016491;28;20073;-78
2022/08/02 09:02:10;;;;;;;8.63;2.17;;;;;;;;;;5016738;28;20140;-77
2022/08/02 09:04:47;;;;;;;3.05;2.28;;;;;;;;;;5011242;28;20058;-77
2022/08/02 09:07:20;;;;;;;3.33;2.30;;;;;;;;;;5011493;28;20088;-78
2022/08/02 09:09:46;;;;;;;2.60;2.13;;;;;;;;;;5013150;28;20279;-78
2022/08/02 09:12:17;;;;;;;7.05;2.55;;;;;;;;;;5011306;28;20085;-78
2022/08/02 09:14:45;;;;;;;4.10;2.20;;;;;;;;;;5012698;28;20081;-77
2022/08/02 09:17:16;;;;;;;2.83;2.03;;;;;;;;;;5013255;28;20049;-77
2022/08/02 09:19:42;;;;;;;3.63;2.03;;;;;;;;;;5010988;28;20060;-78
2022/08/02 09:22:12;;;;;;;4.47;1.65;;;;;;;;;;5010690;28;20050;-78
2022/08/02 09:24:45;;;;;;;4.25;1.67;;;;;;;;;;5011722;28;20054;-78
2022/08/02 09:27:21;;;;;;;5.85;2.00;;;;;;;;;;5012020;28;20148;-78
2022/08/02 09:29:49;;;;;;;3.08;1.85;;;;;;;;;;5011867;28;20624;-77
2022/08/02 09:32:45;;;;;;;5.63;2.00;;;;;;;;;;5010216;28;20050;-78
2022/08/02 09:35:14;;;;;;;4.00;1.80;;;;;;;;;;5010420;28;20054;-77
2022/08/02 09:37:40;;;;;;;4.45;1.73;;;;;;;;;;5011342;28;20042;-78
2022/08/02 09:40:10;;;;;;;5.80;2.00;;;;;;;;;;5011264;28;20057;-78
2022/08/02 09:42:56;;;;;;;4.15;2.10;;;;;;;;;;5011102;28;20058;-77
2022/08/02 09:45:28;;;;;;;4.97;2.47;;;;;;;;;;5010948;28;20577;-77
2022/08/02 09:47:54;;;;;;;3.45;2.30;;;;;;;;;;5009594;28;20081;-77
2022/08/02 09:50:21;;;;;;;4.63;1.80;;;;;;;;;;5009801;28;20549;-78
2022/08/02 09:52:50;;;;;;;3.47;1.73;;;;;;;;;;5010742;28;20112;-77
2022/08/02 09:55:16;;;;;;;3.38;1.80;;;;;;;;;;5014502;28;20164;-78
2022/08/02 09:57:43;;;;;;;2.45;1.65;;;;;;;;;;5012204;28;20077;-78
2022/08/02 10:00:16;;;;;;;2.42;1.77;;;;;;;;;;5012555;28;20054;-78
2022/08/02 10:03:10;;;;;;;3.28;1.85;;;;;;;;;;5012427;28;20062;-78
2022/08/02 10:05:49;;;;;;;4.13;1.50;;;;;;;;;;5011425;28;20498;-78
2022/08/02 10:08:21;;;;;;;5.07;1.50;;;;;;;;;;5010601;28;20046;-77
2022/08/02 10:10:48;;;;;;;4.28;1.80;;;;;;;;;;5009683;28;20085;-77
2022/08/02 10:13:14;;;;;;;2.22;1.73;;;;;;;;;;5011354;28;20458;-76
2022/08/02 10:15:47;;;;;;;1.73;1.35;;;;;;;;;;5011506;28;20053;-76
2022/08/02 10:18:16;;;;;;;2.38;1.20;;;;;;;;;;5010311;28;20427;-76
2022/08/02 10:21:05;;;;;;;3.97;1.60;;;;;;;;;;5008799;28;20414;-77
2022/08/02 10:23:33;;;;;;;3.85;1.23;;;;;;;;;;5010257;28;20089;-77
2022/08/02 10:26:02;;;;;;;1.50;1.20;;;;;;;;;;5010033;28;20081;-76
2022/08/02 10:28:31;;;;;;;2.22;1.30;;;;;;;;;;5009894;28;20133;-78
2022/08/02 10:31:02;;;;;;;3.40;1.30;;;;;;;;;;5011375;28;20141;-78
2022/08/02 10:33:31;;;;;;;1.95;1.15;;;;;;;;;;5010526;28;20057;-78
2022/08/02 10:35:58;;;;;;;6.30;1.35;;;;;;;;;;5010904;28;20582;-77
2022/08/02 10:38:32;;;;;;;2.45;1.15;;;;;;;;;;5013297;28;20045;-78
2022/08/02 10:40:59;;;;;;;1.52;1.17;;;;;;;;;;5011891;28;20054;-78
2022/08/02 10:43:34;;;;;;;3.15;1.30;;;;;;;;;;5010808;28;20073;-78
2022/08/02 10:46:19;;;;;;;6.47;1.33;;;;;;;;;;5012425;28;20141;-78
2022/08/02 10:49:02;;;;;;;3.13;1.23;;;;;;;;;;5012878;28;20525;-76
2022/08/02 10:51:52;;;;;;;1.80;1.00;;;;;;;;;;5010926;28;20046;-78
2022/08/02 10:54:21;;;;;;;1.63;1.30;;;;;;;;;;5011121;28;20077;-77
2022/08/02 10:56:49;;;;;;;5.40;1.38;;;;;;;;;;5010635;28;20081;-78
2022/08/02 10:59:35;;;;;;;3.60;1.45;;;;;;;;;;5010875;28;20097;-78
2022/08/02 11:02:01;;;;;;;;;;;;;;;;;;5010910;28;20046;-78
2022/08/02 11:04:28;;;;;;;1.25;1.08;;;;;;;;;;5011405;28;20236;-77
2022/08/02 11:07:13;;;;;;;1.83;1.23;;;;;;;;;;5010674;28;20482;-78
2022/08/02 11:09:40;;;;;;;2.97;1.20;;;;;;;;;;5014214;28;20081;-78
2022/08/02 11:12:08;;;;;;;1.23;0.93;;;;;;;;;;5012183;28;20361;-78
2022/08/02 11:14:42;;;;;;;6.72;1.20;;;;;;;;;;5012532;28;20081;-78
2022/08/02 11:17:08;;;;;;;2.60;1.27;;;;;;;;;;5010176;28;20053;-78
2022/08/02 11:19:55;;;;;;;1.35;1.13;;;;;;;;;;5010223;28;20081;-78
2022/08/02 11:22:22;;;;;;;2.20;1.20;;;;;;;;;;5033316;28;20049;-77
2022/08/02 11:24:51;;;;;;;3.10;1.13;;;;;;;;;;5035670;28;20049;-78
2022/08/02 11:27:19;;;;;;;2.20;1.10;;;;;;;;;;5012885;28;20279;-77
2022/08/02 11:29:50;;;;;;;2.28;1.20;;;;;;;;;;5010303;28;20060;-78
2022/08/02 11:32:17;;;;;;;2.35;1.20;;;;;;;;;;5014959;28;20069;-77
2022/08/02 11:34:49;;;;;;;1.63;1.35;;;;;;;;;;5011863;28;20104;-78
2022/08/02 11:37:27;;;;;;;2.85;1.30;;;;;;;;;;5016017;28;20058;-76
2022/08/02 11:39:54;;;;;;;1.60;1.20;;;;;;;;;;5018522;28;20072;-78
2022/08/02 11:42:20;;;;;;;2.13;1.30;;;;;;;;;;5011686;28;20542;-78
2022/08/02 11:44:48;;;;;;;1.30;1.20;;;;;;;;;;5009400;28;20085;-78
2022/08/02 11:47:14;;;;;;;3.35;1.17;;;;;;;;;;5010359;28;20050;-78
2022/08/02 11:49:41;;;;;;;3.92;1.30;;;;;;;;;;5010389;28;20060;-78
2022/08/02 11:52:09;;;;;;;3.08;1.40;;;;;;;;;;5009313;28;20053;-77
2022/08/02 11:54:39;;;;;;;2.90;1.30;;;;;;;;;;5010324;28;20056;-78
2022/08/02 11:57:13;;;;;;;2.22;1.20;;;;;;;;;;5010314;28;20608;-76
2022/08/02 11:59:46;;;;;;;4.47;1.35;;;;;;;;;;5011824;28;20053;-76
2022/08/02 12:02:14;;;;;;;4.53;1.25;;;;;;;;;;5009620;28;20081;-76
2022/08/02 12:04:40;;;;;;;3.20;1.50;;;;;;;;;;5011573;28;20147;-77
2022/08/02 12:07:09;;;;;;;2.38;1.40;;;;;;;;;;5010536;28;20060;-77
2022/08/02 12:09:35;;;;;;;2.97;1.40;;;;;;;;;;5010941;28;20050;-77
2022/08/02 12:12:06;;;;;;;1.77;1.40;;;;;;;;;;5008021;28;20104;-76
2022/08/02 12:14:40;;;;;;;1.50;1.40;;;;;;;;;;5010153;28;20046;-76
2022/08/02 12:19:52;;;;;;;1.30;1.20;;;;;;;;;;5010439;28;20126;-79
2022/08/02 12:22:22;;;;;;;4.30;1.30;;;;;;;;;;5011243;28;20078;-78
2022/08/02 12:24:50;;;;;;;8.27;1.40;;;;;;;;;;5012064;28;20077;-77
2022/08/02 12:27:31;;;;;;;1.23;1.10;;;;;;;;;;5010475;28;20486;-76
2022/08/02 12:30:05;;;;;;;3.58;1.50;;;;;;;;;;5009983;28;20137;-77
2022/08/02 12:32:31;;;;;;;3.08;1.17;;;;;;;;;;5015214;28;20077;-76
2022/08/02 12:35:07;;;;;;;2.42;1.30;;;;;;;;;;5014392;28;20088;-76
2022/08/02 12:37:34;;;;;;;4.50;1.38;;;;;;;;;;5011674;28;20073;-77
2022/08/02 12:40:19;;;;;;;2.47;1.40;;;;;;;;;;5011963;28;20522;-77
2022/08/02 12:42:58;;;;;;;3.95;1.30;;;;;;;;;;5011477;28;20053;-77
2022/08/02 12:45:26;;;;;;;2.35;1.40;;;;;;;;;;5012267;28;20085;-77
2022/08/02 12:48:06;;;;;;;3.22;1.40;;;;;;;;;;5011427;28;20060;-76
2022/08/02 12:50:35;;;;;;;2.20;1.40;;;;;;;;;;5008966;28;20088;-76
2022/08/02 12:53:09;;;;;;;4.20;1.40;;;;;;;;;;5011230;28;20092;-77
2022/08/02 12:55:45;;;;;;;3.03;1.35;;;;;;;;;;5004945;28;20042;-77
2022/08/02 12:58:29;;;;;;;2.28;1.10;;;;;;;;;;5013844;28;20064;-77
2022/08/02 13:00:56;;;;;;;5.55;1.55;;;;;;;;;;5012791;28;20140;-77
2022/08/02 13:03:23;;;;;;;3.50;1.30;;;;;;;;;;5014509;28;20718;-76
2022/08/02 13:06:09;;;;;;;2.33;1.60;;;;;;;;;;5012558;28;20050;-77
2022/08/02 13:08:59;;;;;;;3.10;1.33;;;;;;;;;;5011831;28;20064;-76
2022/08/02 13:11:26;;;;;;;1.50;1.30;;;;;;;;;;5012277;28;20077;-76
2022/08/02 13:13:52;;;;;;;5.25;1.20;;;;;;;;;;5011968;28;20140;-76
2022/08/02 13:16:18;;;;;;;2.03;1.30;;;;;;;;;;5012208;28;20093;-77
2022/08/02 13:18:56;;;;;;;5.53;1.33;;;;;;;;;;5010597;28;20502;-77
2022/08/02 13:21:22;;;;;;;1.48;1.27;;;;;;;;;;4992740;28;20049;-77
2022/08/02 13:24:10;;;;;;;1.75;1.30;;;;;;;;;;5010797;28;20491;-76
2022/08/02 13:26:56;;;;;;;5.28;1.52;;;;;;;;;;5011430;28;20046;-77
2022/08/02 13:29:22;;;;;;;6.25;1.50;;;;;;;;;;5011099;28;20135;-76
2022/08/02 13:31:51;;;;;;;6.00;1.48;;;;;;;;;;5011052;28;20060;-76
2022/08/02 13:34:18;;;;;;;1.63;1.40;;;;;;;;;;5010882;28;20672;-76
2022/08/02 13:36:44;;;;;;;4.13;1.60;;;;;;;;;;5011774;28;20069;-76
2022/08/02 13:39:11;;;;;;;3.17;1.50;;;;;;;;;;5012669;28;20088;-77
2022/08/02 13:41:37;;;;;;;3.40;1.50;;;;;;;;;;5011296;28;20090;-76
2022/08/02 13:44:04;;;;;;;1.50;1.40;;;;;;;;;;5010734;28;20058;-76
2022/08/02 13:46:38;;;;;;;3.85;1.38;;;;;;;;;;5011506;28;20096;-75
2022/08/02 13:49:11;;;;;;;2.58;1.50;;;;;;;;;;5009493;28;20058;-76
2022/08/02 13:51:44;;;;;;;3.45;1.60;;;;;;;;;;5007150;28;20057;-76
2022/08/02 13:54:11;;;;;;;6.28;1.70;;;;;;;;;;5009733;28;20054;-76
2022/08/02 13:56:37;;;;;;;4.78;1.70;;;;;;;;;;5010891;28;20120;-78
2022/08/02 13:59:03;;;;;;;2.78;1.40;;;;;;;;;;5010005;28;20084;-75
2022/08/02 14:01:50;;;;;;;2.97;1.50;;;;;;;;;;5010394;28;20063;-78
2022/08/02 14:04:17;;;;;;;1.70;1.48;;;;;;;;;;5009533;28;20502;-76
2022/08/02 14:06:43;;;;;;;1.90;1.70;;;;;;;;;;5008640;28;20046;-76
2022/08/02 14:09:10;;;;;;;1.60;1.48;;;;;;;;;;5009889;28;20495;-77
2022/08/02 14:11:42;;;;;;;2.42;1.50;;;;;;;;;;5009570;28;20522;-76
2022/08/02 14:14:08;;;;;;;1.80;1.48;;;;;;;;;;5010389;28;20392;-77
2022/08/02 14:16:43;;;;;;;3.45;1.50;;;;;;;;;;5010516;28;20065;-77
2022/08/02 14:19:10;;;;;;;4.15;1.40;;;;;;;;;;5008782;28;20050;-77
2022/08/02 14:21:42;;;;;;;3.17;1.50;;;;;;;;;;5008932;28;20054;-77
2022/08/02 14:24:13;;;;;;;4.35;1.70;;;;;;;;;;5009570;28;20049;-77
2022/08/02 14:26:40;;;;;;;3.55;1.48;;;;;;;;;;5010146;28;20558;-77
2022/08/02 14:29:06;;;;;;;2.67;1.70;;;;;;;;;;5009951;28;20128;-77
2022/08/02 14:31:32;;;;;;;3.33;1.67;;;;;;;;;;5009875;28;20133;-76
2022/08/02 14:33:59;;;;;;;3.33;1.58;;;;;;;;;;5009537;28;20438;-77
2022/08/02 14:36:25;;;;;;;2.92;1.48;;;;;;;;;;5009486;28;20578;-78
2022/08/02 14:38:53;;;;;;;7.65;1.52;;;;;;;;;;5015523;28;20078;-77
2022/08/02 14:41:20;;;;;;;6.15;1.50;;;;;;;;;;5036305;28;20058;-76
2022/08/02 14:44:05;;;;;;;4.55;1.45;;;;;;;;;;5034079;28;20030;-77
2022/08/02 14:46:37;;;;;;;2.97;1.40;;;;;;;;;;5011572;28;20502;-77
2022/08/02 14:49:03;;;;;;;3.53;1.30;;;;;;;;;;5009149;28;20081;-77
2022/08/02 14:51:31;;;;;;;1.95;1.35;;;;;;;;;;5005361;28;20046;-76
2022/08/02 14:53:58;;;;;;;4.13;1.50;;;;;;;;;;5008944;28;20570;-77
2022/08/02 14:56:29;;;;;;;5.75;1.50;;;;;;;;;;5001116;28;20045;-77
2022/08/02 14:58:55;;;;;;;2.47;1.40;;;;;;;;;;5009814;28;20153;-76
2022/08/02 15:01:22;;;;;;;5.18;1.63;;;;;;;;;;5009009;28;20285;-77